Time;durP1;ratioP1;P1;durP2;ratioP2;P2;SDS_P1;SDS_P2;PMS_P1;PMS_P2;Temp;Humidity;BMP_temperature;BMP_pressure;BME280_temperature;BME280_humidity;BME280_pressure;Samples;Min_cycle;Max_cycle;Signal;HPM_P1;HPM_P2
2022/12/25 00:01:22;;;;;;;30.63;13.43;;;;;;;;;;12840101;19;20539;-67
2022/12/25 00:05:39;;;;;;;26.00;12.13;;;;;;;;;;12841051;19;20298;-67
2022/12/25 00:09:56;;;;;;;20.98;10.73;;;;;;;;;;12841378;19;20438;-67
2022/12/25 00:14:13;;;;;;;27.27;12.77;;;;;;;;;;12840324;19;20433;-68
2022/12/25 00:18:30;;;;;;;24.85;11.98;;;;;;;;;;12840513;19;20323;-68
2022/12/25 00:22:47;;;;;;;22.08;12.05;;;;;;;;;;12838654;19;20390;-67
2022/12/25 00:27:03;;;;;;;25.05;13.68;;;;;;;;;;12840593;19;20433;-68
2022/12/25 00:31:21;;;;;;;34.95;16.40;;;;;;;;;;12842204;19;20409;-67
2022/12/25 00:35:38;;;;;;;24.38;12.75;;;;;;;;;;12841101;19;20029;-68
2022/12/25 00:39:55;;;;;;;21.98;10.30;;;;;;;;;;12835901;19;20441;-68
2022/12/25 00:44:13;;;;;;;24.53;12.20;;;;;;;;;;12838345;19;20007;-67
2022/12/25 00:48:30;;;;;;;21.63;11.07;;;;;;;;;;12839328;19;20011;-67
2022/12/25 00:52:48;;;;;;;21.95;11.75;;;;;;;;;;12837062;19;20489;-67
2022/12/25 00:57:05;;;;;;;24.52;12.90;;;;;;;;;;12838819;19;20018;-68
2022/12/25 01:01:22;;;;;;;27.58;13.55;;;;;;;;;;12835536;19;20493;-68
2022/12/25 01:05:38;;;;;;;18.70;11.75;;;;;;;;;;12841372;19;20002;-68
2022/12/25 01:14:31;;;;;;;20.45;10.80;;;;;;;;;;12837344;19;20461;-67
2022/12/25 01:18:48;;;;;;;20.50;10.65;;;;;;;;;;12838123;19;20457;-67
2022/12/25 01:23:05;;;;;;;20.95;11.55;;;;;;;;;;12835765;19;20010;-67
2022/12/25 01:27:22;;;;;;;23.88;11.00;;;;;;;;;;12837501;19;20017;-67
2022/12/25 01:31:39;;;;;;;22.42;11.98;;;;;;;;;;12837259;19;20034;-67
2022/12/25 01:35:57;;;;;;;18.90;10.57;;;;;;;;;;12804085;19;20469;-69
2022/12/25 01:40:14;;;;;;;25.92;13.98;;;;;;;;;;12833927;19;20366;-71
2022/12/25 01:44:34;;;;;;;28.05;14.38;;;;;;;;;;12836704;19;20307;-67
2022/12/25 01:48:52;;;;;;;27.75;13.25;;;;;;;;;;12836173;19;20382;-68
2022/12/25 01:53:09;;;;;;;22.65;12.55;;;;;;;;;;12844752;19;20433;-67
2022/12/25 01:57:29;;;;;;;23.85;12.93;;;;;;;;;;12848503;19;20026;-67
2022/12/25 02:01:46;;;;;;;25.48;13.25;;;;;;;;;;12846252;19;20354;-67
2022/12/25 02:06:04;;;;;;;24.55;12.00;;;;;;;;;;12845687;19;20018;-67
2022/12/25 02:10:21;;;;;;;26.33;13.45;;;;;;;;;;12847612;19;20477;-67
2022/12/25 02:14:38;;;;;;;27.92;13.63;;;;;;;;;;12848178;19;20624;-67
2022/12/25 02:18:58;;;;;;;23.55;11.65;;;;;;;;;;12845581;19;20603;-66
2022/12/25 02:23:21;;;;;;;21.25;11.65;;;;;;;;;;12843835;19;20307;-67
2022/12/25 02:28:02;;;;;;;26.17;10.65;;;;;;;;;;12846629;19;20486;-67
2022/12/25 02:32:25;;;;;;;20.35;11.50;;;;;;;;;;12844003;19;20445;-67
2022/12/25 02:36:45;;;;;;;22.90;12.25;;;;;;;;;;12844687;19;20378;-66
2022/12/25 02:41:07;;;;;;;25.40;13.45;;;;;;;;;;12844823;19;20029;-67
2022/12/25 03:08:47;;;;;;;19.90;11.27;;;;;;;;;;12842920;19;20295;-67
2022/12/25 03:13:29;;;;;;;21.67;10.98;;;;;;;;;;12842398;19;20445;-67
2022/12/25 03:17:46;;;;;;;21.08;11.65;;;;;;;;;;12842574;19;20042;-67
2022/12/25 03:26:54;;;;;;;22.13;11.45;;;;;;;;;;12842744;19;20403;-66
2022/12/25 03:31:41;;;;;;;20.65;10.63;;;;;;;;;;12841036;19;21963;-67
2022/12/25 03:36:24;;;;;;;16.85;9.65;;;;;;;;;;12843169;19;20434;-69
2022/12/25 04:36:28;;;;;;;24.27;11.45;;;;;;;;;;12839646;19;20037;-68
2022/12/25 04:40:48;;;;;;;21.63;11.98;;;;;;;;;;12839304;19;20438;-66
2022/12/25 04:45:05;;;;;;;24.30;12.35;;;;;;;;;;12839150;19;20430;-67
2022/12/25 04:49:22;;;;;;;21.13;10.57;;;;;;;;;;12839823;19;20438;-69
2022/12/25 04:53:39;;;;;;;22.85;11.63;;;;;;;;;;12839316;19;20465;-67
2022/12/25 04:57:56;;;;;;;26.42;12.98;;;;;;;;;;12838878;19;20006;-67
2022/12/25 05:02:13;;;;;;;20.42;12.32;;;;;;;;;;12837104;19;20437;-67
2022/12/25 05:06:32;;;;;;;22.25;12.93;;;;;;;;;;12837465;19;20445;-67
2022/12/25 05:10:49;;;;;;;16.35;10.25;;;;;;;;;;12839842;19;20319;-69
2022/12/25 05:15:06;;;;;;;20.63;9.93;;;;;;;;;;12836460;19;20038;-67
2022/12/25 05:19:23;;;;;;;20.07;10.53;;;;;;;;;;12837743;19;20422;-67
2022/12/25 05:23:47;;;;;;;17.45;9.60;;;;;;;;;;12836806;19;20363;-67
2022/12/25 05:28:04;;;;;;;17.15;9.05;;;;;;;;;;12834312;19;20367;-67
2022/12/25 05:32:21;;;;;;;21.10;10.35;;;;;;;;;;12836635;19;20414;-67
2022/12/25 05:36:38;;;;;;;18.05;10.57;;;;;;;;;;12836755;19;20426;-68
2022/12/25 05:40:55;;;;;;;21.63;9.60;;;;;;;;;;12838159;19;20299;-68
2022/12/25 05:45:12;;;;;;;17.80;9.43;;;;;;;;;;12834344;19;20019;-67
2022/12/25 05:49:28;;;;;;;14.95;9.13;;;;;;;;;;12836198;19;20438;-67
2022/12/25 05:53:45;;;;;;;19.90;9.60;;;;;;;;;;12836039;19;20352;-67
2022/12/25 05:58:03;;;;;;;15.80;8.65;;;;;;;;;;12834794;19;20010;-72
2022/12/25 06:02:20;;;;;;;;;;;;;;;;;;12835172;19;20394;-67
2022/12/25 06:06:37;;;;;;;26.30;10.52;;;;;;;;;;12832850;19;20240;-67
2022/12/25 06:10:54;;;;;;;22.20;9.75;;;;;;;;;;12835592;19;20363;-67
2022/12/25 06:15:11;;;;;;;18.58;8.90;;;;;;;;;;12833379;19;20029;-67
2022/12/25 06:19:28;;;;;;;15.20;8.40;;;;;;;;;;12834849;19;20014;-67
2022/12/25 06:23:45;;;;;;;15.70;10.23;;;;;;;;;;12834731;19;20003;-67
2022/12/25 06:28:03;;;;;;;16.57;9.93;;;;;;;;;;12831467;19;20301;-67
2022/12/25 06:32:19;;;;;;;20.25;10.93;;;;;;;;;;12833737;19;20050;-67
2022/12/25 06:36:37;;;;;;;15.93;9.50;;;;;;;;;;12835551;19;20538;-67
2022/12/25 06:40:54;;;;;;;14.90;8.47;;;;;;;;;;12846496;19;20339;-67
2022/12/25 06:45:10;;;;;;;16.13;8.77;;;;;;;;;;12844457;19;20340;-67
2022/12/25 06:49:28;;;;;;;14.93;8.20;;;;;;;;;;12843197;19;20346;-67
2022/12/25 06:53:45;;;;;;;20.80;10.40;;;;;;;;;;12845933;19;20441;-66
2022/12/25 06:58:02;;;;;;;18.92;10.10;;;;;;;;;;12845222;19;20314;-67
2022/12/25 07:02:21;;;;;;;19.25;11.35;;;;;;;;;;12842748;19;20440;-67
2022/12/25 07:06:39;;;;;;;29.52;11.85;;;;;;;;;;12843437;19;20018;-67
2022/12/25 07:10:57;;;;;;;19.58;9.27;;;;;;;;;;12844879;19;20006;-67
2022/12/25 07:15:14;;;;;;;21.00;9.23;;;;;;;;;;12843031;19;20089;-67
2022/12/25 07:19:31;;;;;;;21.63;10.93;;;;;;;;;;12844109;19;20020;-68
2022/12/25 07:23:48;;;;;;;22.23;11.43;;;;;;;;;;12842269;19;20388;-67
2022/12/25 07:28:06;;;;;;;23.17;11.05;;;;;;;;;;12842935;19;20449;-69
2022/12/25 07:32:23;;;;;;;20.98;11.40;;;;;;;;;;12843568;19;20323;-67
2022/12/25 07:36:40;;;;;;;48.13;25.45;;;;;;;;;;12843283;19;20303;-69
2022/12/25 07:40:57;;;;;;;65.45;34.55;;;;;;;;;;12843040;19;20433;-67
2022/12/25 07:45:14;;;;;;;62.67;32.33;;;;;;;;;;12840767;19;20306;-67
2022/12/25 07:49:30;;;;;;;54.72;30.38;;;;;;;;;;12841201;19;20006;-67
2022/12/25 07:53:48;;;;;;;63.85;32.42;;;;;;;;;;12843147;19;20429;-67
2022/12/25 07:58:04;;;;;;;47.50;24.77;;;;;;;;;;12841182;19;20025;-67
2022/12/25 08:02:27;;;;;;;50.40;26.25;;;;;;;;;;12841821;19;20510;-67
2022/12/25 08:06:44;;;;;;;28.17;14.77;;;;;;;;;;12842086;19;20050;-67
2022/12/25 08:11:02;;;;;;;26.85;13.30;;;;;;;;;;12841435;19;20440;-67
2022/12/25 08:15:19;;;;;;;25.05;12.82;;;;;;;;;;12839624;19;20434;-69
2022/12/25 08:19:36;;;;;;;18.50;9.63;;;;;;;;;;12841728;19;20396;-66
2022/12/25 08:23:52;;;;;;;16.90;8.13;;;;;;;;;;12839343;19;20011;-67
2022/12/25 08:28:09;;;;;;;17.80;8.75;;;;;;;;;;12840114;19;20015;-71
2022/12/25 08:32:26;;;;;;;16.85;9.25;;;;;;;;;;12839885;19;20364;-67
2022/12/25 08:38:12;;;;;;;16.00;8.40;;;;;;;;;;12814396;19;20361;-67
2022/12/25 08:42:28;;;;;;;16.00;8.73;;;;;;;;;;12824925;19;20021;-67
2022/12/25 08:46:45;;;;;;;15.57;8.95;;;;;;;;;;12899581;19;20011;-68
2022/12/25 08:51:03;;;;;;;15.05;7.80;;;;;;;;;;12896713;19;20358;-67
2022/12/25 08:55:20;;;;;;;12.77;7.47;;;;;;;;;;12897480;19;20011;-68
2022/12/25 08:59:36;;;;;;;16.48;9.10;;;;;;;;;;12898414;19;20335;-68
2022/12/25 09:03:53;;;;;;;14.65;9.52;;;;;;;;;;12898955;19;20426;-65
2022/12/25 09:08:10;;;;;;;16.13;9.10;;;;;;;;;;12897492;19;20029;-65
2022/12/25 09:12:28;;;;;;;;;;;;;;;;;;12898786;19;20723;-64
2022/12/25 09:16:45;;;;;;;22.05;13.13;;;;;;;;;;12897326;19;19944;-65
2022/12/25 09:21:03;;;;;;;15.48;9.45;;;;;;;;;;12896624;19;20326;-66
2022/12/25 09:25:20;;;;;;;20.63;11.57;;;;;;;;;;12896732;19;20448;-64
2022/12/25 09:29:37;;;;;;;18.45;9.70;;;;;;;;;;12896913;19;20006;-65
2022/12/25 09:33:55;;;;;;;20.70;10.77;;;;;;;;;;12896652;19;20011;-65
2022/12/25 09:38:12;;;;;;;17.90;10.90;;;;;;;;;;12894946;19;20368;-66
2022/12/25 09:42:35;;;;;;;19.92;10.68;;;;;;;;;;12895621;19;20421;-67
2022/12/25 09:46:54;;;;;;;21.90;11.90;;;;;;;;;;12877136;19;20401;-65
2022/12/25 09:51:15;;;;;;;21.30;10.80;;;;;;;;;;12845532;19;20007;-65
2022/12/25 09:55:34;;;;;;;23.20;12.13;;;;;;;;;;12845055;19;20006;-65
2022/12/25 09:59:53;;;;;;;23.83;14.10;;;;;;;;;;12845267;19;20804;-65
2022/12/25 10:04:09;;;;;;;27.48;14.40;;;;;;;;;;12844811;19;20444;-67
2022/12/25 10:08:38;;;;;;;24.38;12.70;;;;;;;;;;12844758;19;20466;-66
2022/12/25 10:13:03;;;;;;;24.13;12.63;;;;;;;;;;12845701;19;20294;-65
2022/12/25 10:17:22;;;;;;;25.77;14.18;;;;;;;;;;12843242;19;20434;-65
2022/12/25 10:21:39;;;;;;;26.42;16.10;;;;;;;;;;12844428;19;20386;-67
2022/12/25 10:25:56;;;;;;;35.10;19.30;;;;;;;;;;12844827;19;20475;-65
2022/12/25 10:30:31;;;;;;;37.88;21.08;;;;;;;;;;12841386;19;20295;-65
2022/12/25 10:34:48;;;;;;;35.92;18.85;;;;;;;;;;12843022;19;20619;-66
2022/12/25 10:39:05;;;;;;;22.05;11.25;;;;;;;;;;12842841;19;20399;-65
2022/12/25 10:43:35;;;;;;;17.27;8.30;;;;;;;;;;12842625;19;20047;-65
2022/12/25 10:48:00;;;;;;;19.77;9.57;;;;;;;;;;12843274;19;20433;-66
2022/12/25 10:52:25;;;;;;;15.75;8.88;;;;;;;;;;12842485;19;20482;-66
2022/12/25 10:56:51;;;;;;;16.45;8.98;;;;;;;;;;12842415;19;20434;-66
2022/12/25 11:01:08;;;;;;;14.38;7.50;;;;;;;;;;12838699;19;20465;-65
2022/12/25 11:05:27;;;;;;;15.57;7.97;;;;;;;;;;12787316;19;20034;-65
2022/12/25 11:09:51;;;;;;;17.08;8.38;;;;;;;;;;12842561;19;20287;-65
2022/12/25 11:14:13;;;;;;;15.93;7.35;;;;;;;;;;12842039;19;20046;-66
2022/12/25 11:18:34;;;;;;;13.52;8.05;;;;;;;;;;12840458;19;20390;-65
2022/12/25 11:22:51;;;;;;;15.27;8.57;;;;;;;;;;12841411;19;20343;-66
2022/12/25 11:27:19;;;;;;;17.02;8.38;;;;;;;;;;12840291;19;20305;-65
2022/12/25 11:35:49;;;;;;;18.35;7.28;;;;;;;;;;12709253;19;20663;-68
2022/12/25 11:40:12;;;;;;;15.13;7.22;;;;;;;;;;12841885;19;20426;-69
2022/12/25 11:44:37;;;;;;;12.80;7.70;;;;;;;;;;12898576;19;20007;-68
2022/12/25 11:48:56;;;;;;;25.13;10.13;;;;;;;;;;12897771;19;20025;-68
2022/12/25 11:53:25;;;;;;;18.13;8.85;;;;;;;;;;12895890;19;20422;-68
2022/12/25 11:57:44;;;;;;;20.73;8.18;;;;;;;;;;12898325;19;20427;-68
2022/12/25 12:02:07;;;;;;;17.13;7.30;;;;;;;;;;12897305;19;20354;-68
2022/12/25 12:06:43;;;;;;;16.10;7.03;;;;;;;;;;12896452;19;20709;-69
2022/12/25 12:11:16;;;;;;;21.05;8.93;;;;;;;;;;12897414;19;20437;-68
2022/12/25 12:15:43;;;;;;;13.25;7.70;;;;;;;;;;12895018;19;20437;-69
2022/12/25 12:20:29;;;;;;;14.27;7.22;;;;;;;;;;12894135;19;20324;-68
2022/12/25 12:24:51;;;;;;;13.70;5.78;;;;;;;;;;12895367;19;20371;-67
2022/12/25 12:29:37;;;;;;;21.23;10.43;;;;;;;;;;12820303;19;20485;-68
2022/12/25 12:33:56;;;;;;;17.00;6.68;;;;;;;;;;12894195;19;20426;-68
2022/12/25 12:38:15;;;;;;;14.38;5.35;;;;;;;;;;12892866;19;20307;-68
2022/12/25 12:42:39;;;;;;;21.00;6.85;;;;;;;;;;12894914;19;20464;-68
2022/12/25 12:46:56;;;;;;;18.10;5.75;;;;;;;;;;12848200;19;20473;-72
2022/12/25 12:51:33;;;;;;;11.80;6.03;;;;;;;;;;12844534;19;20319;-69
2022/12/25 12:55:50;;;;;;;22.97;8.13;;;;;;;;;;12844272;19;20288;-71
2022/12/25 13:00:08;;;;;;;16.95;6.95;;;;;;;;;;12842792;19;20316;-68
2022/12/25 13:04:45;;;;;;;13.77;5.35;;;;;;;;;;12844723;19;20023;-68
2022/12/25 13:09:01;;;;;;;25.88;12.30;;;;;;;;;;12843837;19;20302;-69
2022/12/25 13:13:27;;;;;;;13.68;6.57;;;;;;;;;;12843721;19;20011;-68
2022/12/25 13:17:45;;;;;;;46.80;17.70;;;;;;;;;;12842321;19;20407;-67
2022/12/25 13:22:06;;;;;;;12.70;4.93;;;;;;;;;;12842842;19;20469;-68
2022/12/25 13:26:23;;;;;;;19.25;9.80;;;;;;;;;;12840821;19;20386;-68
2022/12/25 13:30:40;;;;;;;31.77;16.33;;;;;;;;;;12842541;19;20051;-67
2022/12/25 13:34:58;;;;;;;20.75;10.77;;;;;;;;;;12842665;19;20367;-68
2022/12/25 13:39:16;;;;;;;21.83;10.60;;;;;;;;;;12844739;19;20418;-65
2022/12/25 13:43:32;;;;;;;15.82;8.00;;;;;;;;;;12842388;19;20506;-66
2022/12/25 13:47:50;;;;;;;7.88;3.63;;;;;;;;;;12841414;19;20442;-66
2022/12/25 13:52:12;;;;;;;9.80;3.75;;;;;;;;;;12841097;19;20063;-66
2022/12/25 13:56:29;;;;;;;11.73;5.63;;;;;;;;;;12839583;19;20326;-65
2022/12/25 14:00:48;;;;;;;11.40;5.73;;;;;;;;;;12773296;19;20014;-67
2022/12/25 14:05:20;;;;;;;6.38;3.25;;;;;;;;;;12823930;19;20301;-68
2022/12/25 14:09:39;;;;;;;11.32;4.72;;;;;;;;;;12845252;19;20385;-66
2022/12/25 14:14:01;;;;;;;8.02;3.78;;;;;;;;;;12898548;19;20479;-65
2022/12/25 14:18:18;;;;;;;12.93;4.90;;;;;;;;;;12897526;19;20372;-65
2022/12/25 14:22:37;;;;;;;8.15;4.88;;;;;;;;;;12822711;19;20425;-65
2022/12/25 14:27:16;;;;;;;9.50;4.47;;;;;;;;;;12897257;19;20350;-65
2022/12/25 14:31:33;;;;;;;11.18;3.92;;;;;;;;;;12897145;19;20014;-65
2022/12/25 14:35:51;;;;;;;12.98;5.28;;;;;;;;;;12897630;19;20336;-65
2022/12/25 14:40:22;;;;;;;13.27;5.30;;;;;;;;;;12896791;19;20445;-66
2022/12/25 14:44:40;;;;;;;11.60;5.75;;;;;;;;;;12896535;19;20434;-66
2022/12/25 14:49:01;;;;;;;11.60;5.20;;;;;;;;;;12897309;19;20437;-66
2022/12/25 14:53:20;;;;;;;10.20;6.50;;;;;;;;;;12896314;19;20033;-64
2022/12/25 14:57:37;;;;;;;18.90;11.07;;;;;;;;;;12895002;19;20330;-65
2022/12/25 15:01:56;;;;;;;16.23;9.50;;;;;;;;;;12896008;19;20456;-66
2022/12/25 15:06:20;;;;;;;12.95;6.60;;;;;;;;;;12895095;19;20372;-66
2022/12/25 15:10:38;;;;;;;12.02;6.55;;;;;;;;;;12895423;19;20549;-65
2022/12/25 15:15:14;;;;;;;10.67;6.70;;;;;;;;;;12860173;19;20426;-66
2022/12/25 15:19:36;;;;;;;13.07;7.90;;;;;;;;;;12845957;19;20010;-66
2022/12/25 15:23:55;;;;;;;13.80;10.40;;;;;;;;;;12845240;19;20319;-65
2022/12/25 15:28:12;;;;;;;8.85;5.57;;;;;;;;;;12842452;19;20318;-66
2022/12/25 15:32:29;;;;;;;12.95;10.10;;;;;;;;;;12844641;19;20021;-65
2022/12/25 15:40:47;;;;;;;20.00;12.95;;;;;;;;;;12900865;19;20834;-67
2022/12/25 15:45:05;;;;;;;19.00;14.35;;;;;;;;;;12830695;19;20595;-68
2022/12/25 15:49:21;;;;;;;20.90;15.25;;;;;;;;;;12898612;19;20394;-68
2022/12/25 15:53:38;;;;;;;12.13;8.70;;;;;;;;;;12898220;19;20318;-69
2022/12/25 15:57:55;;;;;;;16.67;11.05;;;;;;;;;;12897553;19;20010;-67
2022/12/25 16:02:17;;;;;;;25.00;12.73;;;;;;;;;;12896511;19;20324;-68
2022/12/25 16:06:34;;;;;;;16.73;8.68;;;;;;;;;;12898190;19;20006;-68
2022/12/25 16:10:51;;;;;;;23.55;11.15;;;;;;;;;;12898059;19;20356;-68
2022/12/25 16:15:09;;;;;;;19.50;11.50;;;;;;;;;;12896623;19;20430;-67
2022/12/25 16:19:26;;;;;;;21.98;13.77;;;;;;;;;;12896170;19;20446;-68
2022/12/25 16:23:43;;;;;;;19.27;11.30;;;;;;;;;;12896590;19;20030;-67
2022/12/25 16:28:02;;;;;;;17.73;11.23;;;;;;;;;;12896402;19;20014;-65
2022/12/25 16:32:19;;;;;;;17.35;10.63;;;;;;;;;;12896154;19;20354;-64
2022/12/25 16:36:35;;;;;;;24.48;13.93;;;;;;;;;;12894027;19;20459;-66
2022/12/25 16:40:57;;;;;;;25.08;14.98;;;;;;;;;;12895476;19;20490;-64
2022/12/25 16:45:14;;;;;;;24.95;14.85;;;;;;;;;;12895329;19;20438;-65
2022/12/25 16:49:32;;;;;;;34.13;17.38;;;;;;;;;;12876419;19;20015;-65
2022/12/25 16:53:48;;;;;;;43.72;23.15;;;;;;;;;;12845461;19;20312;-65
2022/12/25 16:58:06;;;;;;;;;;;;;;;;;;12844966;19;20050;-66
2022/12/25 17:02:23;;;;;;;38.60;21.08;;;;;;;;;;12844712;19;19914;-64
2022/12/25 17:06:40;;;;;;;35.00;19.07;;;;;;;;;;12844328;19;20292;-64
2022/12/25 17:10:57;;;;;;;35.80;19.95;;;;;;;;;;12845719;19;20418;-64
2022/12/25 17:15:14;;;;;;;32.60;18.25;;;;;;;;;;12844128;19;20434;-64
2022/12/25 17:19:30;;;;;;;42.55;23.02;;;;;;;;;;12844269;19;20352;-65
2022/12/25 17:23:47;;;;;;;82.03;44.00;;;;;;;;;;12843337;19;20013;-65
2022/12/25 17:28:04;;;;;;;96.00;53.33;;;;;;;;;;12843180;19;20470;-65
2022/12/25 17:32:21;;;;;;;42.35;23.65;;;;;;;;;;12842844;19;20474;-64
2022/12/25 17:36:37;;;;;;;27.70;13.68;;;;;;;;;;12842407;19;20430;-64
2022/12/25 17:40:55;;;;;;;23.35;13.38;;;;;;;;;;12843994;19;20310;-65
2022/12/25 17:45:12;;;;;;;27.47;16.33;;;;;;;;;;12842804;19;20302;-65
2022/12/25 17:49:28;;;;;;;44.67;21.70;;;;;;;;;;12842583;19;20014;-65
2022/12/25 17:53:46;;;;;;;65.95;28.40;;;;;;;;;;12842486;19;20030;-64
2022/12/25 17:58:03;;;;;;;213.63;101.55;;;;;;;;;;12841529;19;20494;-65
2022/12/25 18:02:20;;;;;;;210.10;93.68;;;;;;;;;;12836945;19;20379;-68
2022/12/25 18:06:37;;;;;;;150.87;75.73;;;;;;;;;;12841428;19;20304;-67
2022/12/25 18:10:57;;;;;;;182.50;83.10;;;;;;;;;;12841402;19;20311;-68
2022/12/25 18:15:14;;;;;;;196.02;83.93;;;;;;;;;;12842990;19;20422;-68
2022/12/25 18:19:31;;;;;;;128.23;55.53;;;;;;;;;;12838716;19;20307;-65
2022/12/25 18:23:48;;;;;;;136.00;63.40;;;;;;;;;;12840494;19;20010;-66
2022/12/25 18:28:05;;;;;;;158.48;72.57;;;;;;;;;;12839725;19;20451;-65
2022/12/25 18:32:22;;;;;;;92.13;38.88;;;;;;;;;;12840014;19;20426;-69
2022/12/25 18:36:43;;;;;;;129.43;51.65;;;;;;;;;;12839677;19;20359;-68
2022/12/25 18:41:03;;;;;;;124.00;51.35;;;;;;;;;;12839449;19;20316;-69
2022/12/25 18:45:19;;;;;;;141.80;57.35;;;;;;;;;;12840245;19;20438;-67
2022/12/25 18:50:08;;;;;;;105.13;47.83;;;;;;;;;;12900670;19;20603;-67
2022/12/25 18:54:25;;;;;;;39.50;19.02;;;;;;;;;;12898736;19;20410;-67
2022/12/25 18:58:44;;;;;;;103.32;41.65;;;;;;;;;;12898988;19;20430;-67
2022/12/25 19:03:00;;;;;;;90.80;36.28;;;;;;;;;;12897760;19;20326;-68
2022/12/25 19:07:18;;;;;;;47.80;21.42;;;;;;;;;;12896855;19;20331;-67
2022/12/25 19:11:36;;;;;;;65.23;30.33;;;;;;;;;;12898347;19;20361;-67
2022/12/25 19:15:59;;;;;;;71.15;34.67;;;;;;;;;;12897724;19;20276;-69
2022/12/25 19:20:16;;;;;;;54.90;27.67;;;;;;;;;;12896300;19;20086;-68
2022/12/25 19:24:33;;;;;;;67.25;28.98;;;;;;;;;;12896584;19;20402;-67
2022/12/25 19:28:51;;;;;;;34.30;17.77;;;;;;;;;;12896710;19;20440;-67
2022/12/25 19:33:08;;;;;;;56.30;23.42;;;;;;;;;;12895549;19;20355;-67
2022/12/25 19:37:33;;;;;;;80.30;30.88;;;;;;;;;;12895843;19;20010;-67
2022/12/25 19:41:50;;;;;;;50.38;21.25;;;;;;;;;;12897268;19;20354;-68
2022/12/25 19:46:09;;;;;;;45.40;18.20;;;;;;;;;;12893984;19;20436;-67
2022/12/25 19:50:27;;;;;;;28.05;15.00;;;;;;;;;;12896088;19;20042;-68
2022/12/25 19:54:43;;;;;;;;;;;;;;;;;;12896338;19;20011;-67
2022/12/25 19:59:00;;;;;;;57.72;22.90;;;;;;;;;;12765577;19;20208;-68
2022/12/25 20:03:17;;;;;;;57.55;21.75;;;;;;;;;;12843385;19;20317;-68
2022/12/25 20:07:34;;;;;;;61.05;24.00;;;;;;;;;;12844290;19;20465;-69
2022/12/25 20:11:50;;;;;;;67.50;26.67;;;;;;;;;;12845943;19;20007;-68
2022/12/25 20:16:08;;;;;;;98.50;36.88;;;;;;;;;;12769321;19;20445;-68
2022/12/25 20:20:25;;;;;;;32.40;15.98;;;;;;;;;;12844676;19;20010;-68
2022/12/25 20:24:42;;;;;;;48.67;20.50;;;;;;;;;;12844548;19;20438;-68
2022/12/25 20:28:59;;;;;;;46.50;18.52;;;;;;;;;;12844658;19;20078;-68
2022/12/25 20:33:16;;;;;;;44.60;19.95;;;;;;;;;;12843004;19;21617;-68
2022/12/25 20:37:32;;;;;;;36.28;17.48;;;;;;;;;;12844158;19;20497;-67
2022/12/25 20:41:49;;;;;;;42.45;18.27;;;;;;;;;;12843636;19;20433;-67
2022/12/25 20:46:06;;;;;;;27.27;13.82;;;;;;;;;;12841327;19;20425;-65
2022/12/25 20:50:23;;;;;;;37.28;17.40;;;;;;;;;;12842175;19;20509;-65
2022/12/25 20:54:41;;;;;;;45.63;18.67;;;;;;;;;;12842716;19;20355;-66
2022/12/25 20:58:59;;;;;;;41.90;17.60;;;;;;;;;;12843155;19;20018;-65
2022/12/25 21:03:16;;;;;;;40.73;16.97;;;;;;;;;;12841178;19;20358;-65
2022/12/25 21:07:33;;;;;;;39.60;17.63;;;;;;;;;;12840301;19;20038;-67
2022/12/25 21:11:50;;;;;;;46.33;17.58;;;;;;;;;;12839526;19;20343;-67
2022/12/25 21:16:08;;;;;;;50.72;19.23;;;;;;;;;;12839889;19;20291;-67
2022/12/25 21:20:25;;;;;;;30.77;13.93;;;;;;;;;;12840526;19;20346;-69
2022/12/25 21:24:41;;;;;;;42.15;17.45;;;;;;;;;;12840846;19;20003;-67
2022/12/25 21:28:59;;;;;;;47.88;19.60;;;;;;;;;;12840037;19;20055;-68
2022/12/25 21:37:52;;;;;;;46.72;18.52;;;;;;;;;;12840281;19;20364;-67
2022/12/25 21:42:09;;;;;;;40.80;17.85;;;;;;;;;;12839161;19;20430;-67
2022/12/25 21:46:26;;;;;;;45.40;23.35;;;;;;;;;;12838727;19;20364;-68
2022/12/25 21:55:18;;;;;;;161.88;62.30;;;;;;;;;;12839012;19;20445;-67
2022/12/25 21:59:35;;;;;;;86.28;35.30;;;;;;;;;;12839218;19;20010;-68
2022/12/25 22:03:52;;;;;;;226.23;75.97;;;;;;;;;;12838740;19;20438;-68
2022/12/25 22:08:09;;;;;;;257.65;87.65;;;;;;;;;;12837346;19;20442;-69
2022/12/25 22:21:37;;;;;;;136.20;47.67;;;;;;;;;;12837373;19;20324;-66
2022/12/25 22:25:53;;;;;;;178.80;57.72;;;;;;;;;;12838383;19;20414;-64
2022/12/25 22:30:12;;;;;;;140.32;44.22;;;;;;;;;;12836012;19;20471;-65
2022/12/25 22:34:29;;;;;;;121.47;39.80;;;;;;;;;;12835907;19;20326;-65
2022/12/25 22:38:45;;;;;;;148.35;46.15;;;;;;;;;;12837395;19;20721;-64
2022/12/25 22:43:02;;;;;;;127.72;44.35;;;;;;;;;;12836460;19;20430;-65
2022/12/25 22:47:19;;;;;;;194.15;59.42;;;;;;;;;;12834928;19;20035;-65
2022/12/25 22:51:36;;;;;;;180.75;56.17;;;;;;;;;;12791965;19;20445;-67
2022/12/25 22:55:52;;;;;;;60.20;23.48;;;;;;;;;;12837234;19;20438;-64
2022/12/25 23:00:10;;;;;;;;;;;;;;;;;;12835510;19;20421;-66
2022/12/25 23:04:28;;;;;;;64.18;25.05;;;;;;;;;;12836675;19;20291;-66
2022/12/25 23:08:45;;;;;;;38.93;15.40;;;;;;;;;;12834717;19;20636;-64
2022/12/25 23:26:48;;;;;;;60.72;22.92;;;;;;;;;;12835395;19;20445;-65
2022/12/25 23:31:04;;;;;;;93.45;34.17;;;;;;;;;;12833770;19;20599;-64
2022/12/25 23:35:21;;;;;;;71.65;26.33;;;;;;;;;;12842429;19;20452;-66
2022/12/25 23:39:38;;;;;;;78.90;28.38;;;;;;;;;;12846576;19;20442;-67
2022/12/25 23:43:55;;;;;;;64.95;24.20;;;;;;;;;;12833654;19;125899;-67
2022/12/25 23:48:12;;;;;;;65.13;25.75;;;;;;;;;;12844708;19;20018;-67
2022/12/25 23:52:28;;;;;;;60.03;20.90;;;;;;;;;;12846537;19;20306;-66
2022/12/25 23:56:45;;;;;;;53.45;23.63;;;;;;;;;;12845643;19;20015;-66
